sensor_id;sensor_type;location;lat;lon;timestamp;temperature;humidity
14555;DHT22;7364;50.870;4.722;2024-01-30T00:00:35;10.60;99.90
14555;DHT22;7364;50.870;4.722;2024-01-30T00:03:02;10.60;99.90
14555;DHT22;7364;50.870;4.722;2024-01-30T00:05:30;10.60;99.90
14555;DHT22;7364;50.870;4.722;2024-01-30T00:07:57;10.60;99.90
14555;DHT22;7364;50.870;4.722;2024-01-30T00:10:25;10.60;99.90
14555;DHT22;7364;50.870;4.722;2024-01-30T00:12:52;10.70;99.90
14555;DHT22;7364;50.870;4.722;2024-01-30T00:15:21;10.70;99.90
14555;DHT22;7364;50.870;4.722;2024-01-30T00:17:48;10.70;99.90
14555;DHT22;7364;50.870;4.722;2024-01-30T00:20:18;10.70;99.90
14555;DHT22;7364;50.870;4.722;2024-01-30T00:22:45;10.70;99.90
14555;DHT22;7364;50.870;4.722;2024-01-30T00:25:13;10.70;99.90
14555;DHT22;7364;50.870;4.722;2024-01-30T00:27:40;10.80;99.90
14555;DHT22;7364;50.870;4.722;2024-01-30T00:30:08;10.80;99.90
14555;DHT22;7364;50.870;4.722;2024-01-30T00:32:37;10.80;99.90
14555;DHT22;7364;50.870;4.722;2024-01-30T00:35:05;10.80;99.90
14555;DHT22;7364;50.870;4.722;2024-01-30T00:37:32;10.90;99.90
14555;DHT22;7364;50.870;4.722;2024-01-30T00:40:00;10.90;99.90
14555;DHT22;7364;50.870;4.722;2024-01-30T00:42:27;10.90;99.90
14555;DHT22;7364;50.870;4.722;2024-01-30T00:44:54;10.90;99.90
14555;DHT22;7364;50.870;4.722;2024-01-30T00:47:21;10.90;99.90
14555;DHT22;7364;50.870;4.722;2024-01-30T00:49:50;11.00;99.90
14555;DHT22;7364;50.870;4.722;2024-01-30T00:52:17;11.00;99.90
14555;DHT22;7364;50.870;4.722;2024-01-30T00:54:45;11.00;99.90
14555;DHT22;7364;50.870;4.722;2024-01-30T00:57:12;11.00;99.90
14555;DHT22;7364;50.870;4.722;2024-01-30T00:59:39;11.00;99.90
14555;DHT22;7364;50.870;4.722;2024-01-30T01:02:06;11.00;99.90
14555;DHT22;7364;50.870;4.722;2024-01-30T01:04:34;11.00;99.90
14555;DHT22;7364;50.870;4.722;2024-01-30T01:07:02;11.10;99.90
14555;DHT22;7364;50.870;4.722;2024-01-30T01:09:30;11.10;99.90
14555;DHT22;7364;50.870;4.722;2024-01-30T01:11:57;11.10;99.90
14555;DHT22;7364;50.870;4.722;2024-01-30T01:14:24;11.10;99.90
14555;DHT22;7364;50.870;4.722;2024-01-30T01:16:52;11.10;99.90
14555;DHT22;7364;50.870;4.722;2024-01-30T01:19:19;11.20;99.90
14555;DHT22;7364;50.870;4.722;2024-01-30T01:21:46;11.20;99.90
14555;DHT22;7364;50.870;4.722;2024-01-30T01:24:15;11.10;99.90
14555;DHT22;7364;50.870;4.722;2024-01-30T01:26:42;11.10;99.90
14555;DHT22;7364;50.870;4.722;2024-01-30T01:29:10;11.10;99.90
14555;DHT22;7364;50.870;4.722;2024-01-30T01:31:37;11.10;99.90
14555;DHT22;7364;50.870;4.722;2024-01-30T01:34:09;11.10;99.90
14555;DHT22;7364;50.870;4.722;2024-01-30T01:36:36;11.10;99.90
14555;DHT22;7364;50.870;4.722;2024-01-30T01:39:03;11.10;99.90
14555;DHT22;7364;50.870;4.722;2024-01-30T01:41:32;11.20;99.90
14555;DHT22;7364;50.870;4.722;2024-01-30T01:44:00;11.10;99.90
14555;DHT22;7364;50.870;4.722;2024-01-30T01:46:28;11.10;99.90
14555;DHT22;7364;50.870;4.722;2024-01-30T01:48:57;11.10;99.90
14555;DHT22;7364;50.870;4.722;2024-01-30T01:51:25;11.10;99.90
14555;DHT22;7364;50.870;4.722;2024-01-30T01:53:54;11.20;99.90
14555;DHT22;7364;50.870;4.722;2024-01-30T01:56:23;11.20;99.90
14555;DHT22;7364;50.870;4.722;2024-01-30T01:58:55;11.20;99.90
14555;DHT22;7364;50.870;4.722;2024-01-30T02:01:23;11.20;99.90
14555;DHT22;7364;50.870;4.722;2024-01-30T02:03:52;11.30;99.90
14555;DHT22;7364;50.870;4.722;2024-01-30T02:06:19;11.20;99.90
14555;DHT22;7364;50.870;4.722;2024-01-30T02:08:47;11.30;99.90
14555;DHT22;7364;50.870;4.722;2024-01-30T02:11:14;11.30;99.90
14555;DHT22;7364;50.870;4.722;2024-01-30T02:13:42;11.20;99.90
14555;DHT22;7364;50.870;4.722;2024-01-30T02:16:11;11.20;99.90
14555;DHT22;7364;50.870;4.722;2024-01-30T02:18:38;11.10;99.90
14555;DHT22;7364;50.870;4.722;2024-01-30T02:21:11;11.20;99.90
14555;DHT22;7364;50.870;4.722;2024-01-30T02:23:40;11.20;99.90
14555;DHT22;7364;50.870;4.722;2024-01-30T02:26:07;11.20;99.90
14555;DHT22;7364;50.870;4.722;2024-01-30T02:28:35;11.10;99.90
14555;DHT22;7364;50.870;4.722;2024-01-30T02:31:02;11.10;99.90
14555;DHT22;7364;50.870;4.722;2024-01-30T02:33:29;11.20;99.90
14555;DHT22;7364;50.870;4.722;2024-01-30T02:38:40;11.20;99.90
14555;DHT22;7364;50.870;4.722;2024-01-30T02:41:07;11.20;99.90
14555;DHT22;7364;50.870;4.722;2024-01-30T02:43:34;11.10;99.90
14555;DHT22;7364;50.870;4.722;2024-01-30T02:46:01;11.10;99.90
14555;DHT22;7364;50.870;4.722;2024-01-30T02:48:28;11.20;99.90
14555;DHT22;7364;50.870;4.722;2024-01-30T02:50:58;11.10;99.90
14555;DHT22;7364;50.870;4.722;2024-01-30T02:53:25;11.00;99.90
14555;DHT22;7364;50.870;4.722;2024-01-30T02:55:54;11.10;99.90
14555;DHT22;7364;50.870;4.722;2024-01-30T02:58:21;11.10;99.90
14555;DHT22;7364;50.870;4.722;2024-01-30T03:00:48;11.10;99.90
14555;DHT22;7364;50.870;4.722;2024-01-30T03:03:15;11.20;99.90
14555;DHT22;7364;50.870;4.722;2024-01-30T03:05:42;11.20;99.90
14555;DHT22;7364;50.870;4.722;2024-01-30T03:08:10;11.20;99.90
14555;DHT22;7364;50.870;4.722;2024-01-30T03:10:37;11.20;99.90
14555;DHT22;7364;50.870;4.722;2024-01-30T03:13:05;11.20;99.90
14555;DHT22;7364;50.870;4.722;2024-01-30T03:15:34;11.20;99.90
14555;DHT22;7364;50.870;4.722;2024-01-30T03:18:02;11.20;99.90
14555;DHT22;7364;50.870;4.722;2024-01-30T03:20:29;11.20;99.90
14555;DHT22;7364;50.870;4.722;2024-01-30T03:22:59;11.20;99.90
14555;DHT22;7364;50.870;4.722;2024-01-30T03:25:26;11.20;99.90
14555;DHT22;7364;50.870;4.722;2024-01-30T03:27:53;11.20;99.90
14555;DHT22;7364;50.870;4.722;2024-01-30T03:30:22;11.20;99.90
14555;DHT22;7364;50.870;4.722;2024-01-30T03:32:49;11.20;99.90
14555;DHT22;7364;50.870;4.722;2024-01-30T03:35:18;11.20;99.90
14555;DHT22;7364;50.870;4.722;2024-01-30T03:37:45;11.20;99.90
14555;DHT22;7364;50.870;4.722;2024-01-30T03:40:13;11.20;99.90
14555;DHT22;7364;50.870;4.722;2024-01-30T03:42:41;11.20;99.90
14555;DHT22;7364;50.870;4.722;2024-01-30T03:45:09;11.20;99.90
14555;DHT22;7364;50.870;4.722;2024-01-30T03:47:37;11.30;99.90
14555;DHT22;7364;50.870;4.722;2024-01-30T03:50:05;11.30;99.90
14555;DHT22;7364;50.870;4.722;2024-01-30T03:52:33;11.40;99.90
14555;DHT22;7364;50.870;4.722;2024-01-30T03:55:00;11.30;99.90
14555;DHT22;7364;50.870;4.722;2024-01-30T03:57:27;11.20;99.90
14555;DHT22;7364;50.870;4.722;2024-01-30T03:59:55;11.20;99.90
14555;DHT22;7364;50.870;4.722;2024-01-30T04:02:22;11.20;99.90
14555;DHT22;7364;50.870;4.722;2024-01-30T04:04:51;11.20;99.90
14555;DHT22;7364;50.870;4.722;2024-01-30T04:07:18;11.30;99.90
14555;DHT22;7364;50.870;4.722;2024-01-30T04:09:45;11.30;99.90
14555;DHT22;7364;50.870;4.722;2024-01-30T04:12:15;11.30;99.90
14555;DHT22;7364;50.870;4.722;2024-01-30T04:14:42;11.40;99.90
14555;DHT22;7364;50.870;4.722;2024-01-30T04:17:09;11.40;99.90
14555;DHT22;7364;50.870;4.722;2024-01-30T04:19:37;11.40;99.90
14555;DHT22;7364;50.870;4.722;2024-01-30T04:22:06;11.50;99.90
14555;DHT22;7364;50.870;4.722;2024-01-30T04:24:34;11.50;99.90
14555;DHT22;7364;50.870;4.722;2024-01-30T04:27:01;11.40;99.90
14555;DHT22;7364;50.870;4.722;2024-01-30T04:29:28;11.50;99.90
14555;DHT22;7364;50.870;4.722;2024-01-30T04:31:56;11.50;99.90
14555;DHT22;7364;50.870;4.722;2024-01-30T04:34:23;11.40;99.90
14555;DHT22;7364;50.870;4.722;2024-01-30T04:36:50;11.30;99.90
14555;DHT22;7364;50.870;4.722;2024-01-30T04:39:19;11.30;99.90
14555;DHT22;7364;50.870;4.722;2024-01-30T04:41:46;11.50;99.90
14555;DHT22;7364;50.870;4.722;2024-01-30T04:44:14;11.50;99.90
14555;DHT22;7364;50.870;4.722;2024-01-30T04:46:41;11.50;99.90
14555;DHT22;7364;50.870;4.722;2024-01-30T04:49:08;11.50;99.90
14555;DHT22;7364;50.870;4.722;2024-01-30T04:51:35;11.40;99.90
14555;DHT22;7364;50.870;4.722;2024-01-30T04:54:03;11.50;99.90
14555;DHT22;7364;50.870;4.722;2024-01-30T04:56:32;11.40;99.90
14555;DHT22;7364;50.870;4.722;2024-01-30T04:58:59;11.50;99.90
14555;DHT22;7364;50.870;4.722;2024-01-30T05:01:26;11.60;99.90
14555;DHT22;7364;50.870;4.722;2024-01-30T05:03:54;11.60;99.90
14555;DHT22;7364;50.870;4.722;2024-01-30T05:06:24;11.60;99.90
14555;DHT22;7364;50.870;4.722;2024-01-30T05:08:52;11.50;99.90
14555;DHT22;7364;50.870;4.722;2024-01-30T05:11:19;11.40;99.90
14555;DHT22;7364;50.870;4.722;2024-01-30T05:13:48;11.30;99.90
14555;DHT22;7364;50.870;4.722;2024-01-30T05:16:15;11.30;99.90
14555;DHT22;7364;50.870;4.722;2024-01-30T05:18:42;11.30;99.90
14555;DHT22;7364;50.870;4.722;2024-01-30T05:21:10;11.30;99.90
14555;DHT22;7364;50.870;4.722;2024-01-30T05:23:37;11.30;99.90
14555;DHT22;7364;50.870;4.722;2024-01-30T05:26:05;11.40;99.90
14555;DHT22;7364;50.870;4.722;2024-01-30T05:28:33;11.40;99.90
14555;DHT22;7364;50.870;4.722;2024-01-30T05:31:01;11.40;99.90
14555;DHT22;7364;50.870;4.722;2024-01-30T05:33:29;11.40;99.90
14555;DHT22;7364;50.870;4.722;2024-01-30T05:35:56;11.40;99.90
14555;DHT22;7364;50.870;4.722;2024-01-30T05:38:23;11.30;99.90
14555;DHT22;7364;50.870;4.722;2024-01-30T05:40:50;11.40;99.90
14555;DHT22;7364;50.870;4.722;2024-01-30T05:43:18;11.40;99.90
14555;DHT22;7364;50.870;4.722;2024-01-30T05:45:45;11.40;99.90
14555;DHT22;7364;50.870;4.722;2024-01-30T05:48:13;11.40;99.90
14555;DHT22;7364;50.870;4.722;2024-01-30T05:50:41;11.20;99.90
14555;DHT22;7364;50.870;4.722;2024-01-30T05:53:08;11.30;99.90
14555;DHT22;7364;50.870;4.722;2024-01-30T05:55:35;11.20;99.90
14555;DHT22;7364;50.870;4.722;2024-01-30T05:58:03;11.30;99.90
14555;DHT22;7364;50.870;4.722;2024-01-30T06:00:30;11.40;99.90
14555;DHT22;7364;50.870;4.722;2024-01-30T06:02:57;11.30;99.90
14555;DHT22;7364;50.870;4.722;2024-01-30T06:05:26;11.30;99.90
14555;DHT22;7364;50.870;4.722;2024-01-30T06:07:53;11.20;99.90
14555;DHT22;7364;50.870;4.722;2024-01-30T06:10:19;11.10;99.90
14555;DHT22;7364;50.870;4.722;2024-01-30T06:12:47;11.10;99.90
14555;DHT22;7364;50.870;4.722;2024-01-30T06:15:14;11.00;99.90
14555;DHT22;7364;50.870;4.722;2024-01-30T06:17:41;11.10;99.90
14555;DHT22;7364;50.870;4.722;2024-01-30T06:20:12;11.10;99.90
14555;DHT22;7364;50.870;4.722;2024-01-30T06:22:40;11.10;99.90
14555;DHT22;7364;50.870;4.722;2024-01-30T06:25:08;11.10;99.90
14555;DHT22;7364;50.870;4.722;2024-01-30T06:27:36;11.10;99.90
14555;DHT22;7364;50.870;4.722;2024-01-30T06:30:04;11.20;99.90
14555;DHT22;7364;50.870;4.722;2024-01-30T06:32:31;11.20;99.90
14555;DHT22;7364;50.870;4.722;2024-01-30T06:35:00;11.20;99.90
14555;DHT22;7364;50.870;4.722;2024-01-30T06:37:27;11.20;99.90
14555;DHT22;7364;50.870;4.722;2024-01-30T06:39:58;11.20;99.90
14555;DHT22;7364;50.870;4.722;2024-01-30T06:42:26;11.20;99.90
14555;DHT22;7364;50.870;4.722;2024-01-30T06:44:53;11.20;99.90
14555;DHT22;7364;50.870;4.722;2024-01-30T06:47:20;11.20;99.90
14555;DHT22;7364;50.870;4.722;2024-01-30T06:49:47;11.20;99.90
14555;DHT22;7364;50.870;4.722;2024-01-30T06:52:15;11.20;99.90
14555;DHT22;7364;50.870;4.722;2024-01-30T06:54:42;11.30;99.90
14555;DHT22;7364;50.870;4.722;2024-01-30T06:57:11;11.60;99.90
14555;DHT22;7364;50.870;4.722;2024-01-30T06:59:40;11.60;99.90
14555;DHT22;7364;50.870;4.722;2024-01-30T07:02:09;11.60;99.90
14555;DHT22;7364;50.870;4.722;2024-01-30T07:04:37;11.60;99.90
14555;DHT22;7364;50.870;4.722;2024-01-30T07:07:05;11.50;99.90
14555;DHT22;7364;50.870;4.722;2024-01-30T07:09:38;11.50;99.90
14555;DHT22;7364;50.870;4.722;2024-01-30T07:12:06;11.50;99.90
14555;DHT22;7364;50.870;4.722;2024-01-30T07:14:34;11.60;99.90
14555;DHT22;7364;50.870;4.722;2024-01-30T07:17:02;11.70;99.90
14555;DHT22;7364;50.870;4.722;2024-01-30T07:19:31;11.70;99.90
14555;DHT22;7364;50.870;4.722;2024-01-30T07:21:59;11.70;99.90
14555;DHT22;7364;50.870;4.722;2024-01-30T07:24:26;11.60;99.90
14555;DHT22;7364;50.870;4.722;2024-01-30T07:26:53;11.70;99.90
14555;DHT22;7364;50.870;4.722;2024-01-30T07:29:21;11.70;99.90
14555;DHT22;7364;50.870;4.722;2024-01-30T07:31:52;11.70;99.90
14555;DHT22;7364;50.870;4.722;2024-01-30T07:34:19;11.80;99.90
14555;DHT22;7364;50.870;4.722;2024-01-30T07:36:46;11.70;99.90
14555;DHT22;7364;50.870;4.722;2024-01-30T07:39:14;11.60;99.90
14555;DHT22;7364;50.870;4.722;2024-01-30T07:41:41;11.80;99.90
14555;DHT22;7364;50.870;4.722;2024-01-30T07:44:08;11.90;99.90
14555;DHT22;7364;50.870;4.722;2024-01-30T07:46:35;12.00;99.90
14555;DHT22;7364;50.870;4.722;2024-01-30T07:49:04;12.10;99.90
14555;DHT22;7364;50.870;4.722;2024-01-30T07:51:33;12.10;99.90
14555;DHT22;7364;50.870;4.722;2024-01-30T07:54:00;12.00;99.90
14555;DHT22;7364;50.870;4.722;2024-01-30T07:56:27;12.10;99.90
14555;DHT22;7364;50.870;4.722;2024-01-30T07:58:55;12.20;99.90
14555;DHT22;7364;50.870;4.722;2024-01-30T08:01:22;12.30;99.90
14555;DHT22;7364;50.870;4.722;2024-01-30T08:03:49;12.20;99.90
14555;DHT22;7364;50.870;4.722;2024-01-30T08:06:18;12.20;99.90
14555;DHT22;7364;50.870;4.722;2024-01-30T08:08:45;12.40;99.90
14555;DHT22;7364;50.870;4.722;2024-01-30T08:11:12;12.40;99.90
14555;DHT22;7364;50.870;4.722;2024-01-30T08:13:40;12.40;99.90
14555;DHT22;7364;50.870;4.722;2024-01-30T08:16:07;12.50;99.90
14555;DHT22;7364;50.870;4.722;2024-01-30T08:18:35;12.60;99.90
14555;DHT22;7364;50.870;4.722;2024-01-30T08:21:03;12.70;99.90
14555;DHT22;7364;50.870;4.722;2024-01-30T08:23:33;12.80;99.90
14555;DHT22;7364;50.870;4.722;2024-01-30T08:26:00;12.70;99.90
14555;DHT22;7364;50.870;4.722;2024-01-30T08:28:28;12.90;99.90
14555;DHT22;7364;50.870;4.722;2024-01-30T08:30:55;13.00;99.90
14555;DHT22;7364;50.870;4.722;2024-01-30T08:33:23;13.00;99.90
14555;DHT22;7364;50.870;4.722;2024-01-30T08:35:50;12.60;99.90
14555;DHT22;7364;50.870;4.722;2024-01-30T08:38:18;12.70;99.90
14555;DHT22;7364;50.870;4.722;2024-01-30T08:40:46;12.70;99.90
14555;DHT22;7364;50.870;4.722;2024-01-30T08:43:14;12.80;99.90
14555;DHT22;7364;50.870;4.722;2024-01-30T08:45:41;12.50;99.90
14555;DHT22;7364;50.870;4.722;2024-01-30T08:48:09;12.50;99.90
14555;DHT22;7364;50.870;4.722;2024-01-30T08:50:37;12.50;99.90
14555;DHT22;7364;50.870;4.722;2024-01-30T08:53:04;12.50;99.90
14555;DHT22;7364;50.870;4.722;2024-01-30T08:55:32;12.40;99.90
14555;DHT22;7364;50.870;4.722;2024-01-30T08:58:00;12.40;99.90
14555;DHT22;7364;50.870;4.722;2024-01-30T09:00:29;12.50;99.90
14555;DHT22;7364;50.870;4.722;2024-01-30T09:02:56;12.50;99.90
14555;DHT22;7364;50.870;4.722;2024-01-30T09:05:23;12.50;99.90
14555;DHT22;7364;50.870;4.722;2024-01-30T09:07:51;12.40;99.90
14555;DHT22;7364;50.870;4.722;2024-01-30T09:10:20;12.40;99.90
14555;DHT22;7364;50.870;4.722;2024-01-30T09:12:47;12.50;99.90
14555;DHT22;7364;50.870;4.722;2024-01-30T09:15:16;12.60;99.90
14555;DHT22;7364;50.870;4.722;2024-01-30T09:17:44;12.60;99.90
14555;DHT22;7364;50.870;4.722;2024-01-30T09:20:11;12.60;99.90
14555;DHT22;7364;50.870;4.722;2024-01-30T09:22:39;12.60;99.90
14555;DHT22;7364;50.870;4.722;2024-01-30T09:25:06;12.70;99.90
14555;DHT22;7364;50.870;4.722;2024-01-30T09:27:33;12.60;99.90
14555;DHT22;7364;50.870;4.722;2024-01-30T09:30:01;12.80;99.90
14555;DHT22;7364;50.870;4.722;2024-01-30T09:32:30;12.80;99.90
14555;DHT22;7364;50.870;4.722;2024-01-30T09:34:57;12.70;99.90
14555;DHT22;7364;50.870;4.722;2024-01-30T09:37:24;12.80;99.90
14555;DHT22;7364;50.870;4.722;2024-01-30T09:39:51;12.80;99.90
14555;DHT22;7364;50.870;4.722;2024-01-30T09:42:31;12.80;99.90
14555;DHT22;7364;50.870;4.722;2024-01-30T09:45:00;12.90;99.90
14555;DHT22;7364;50.870;4.722;2024-01-30T09:47:31;13.00;99.90
14555;DHT22;7364;50.870;4.722;2024-01-30T09:49:59;12.80;99.90
14555;DHT22;7364;50.870;4.722;2024-01-30T09:52:28;12.70;99.90
14555;DHT22;7364;50.870;4.722;2024-01-30T09:54:56;13.00;99.90
14555;DHT22;7364;50.870;4.722;2024-01-30T09:57:25;13.10;99.90
14555;DHT22;7364;50.870;4.722;2024-01-30T09:59:52;13.20;99.90
14555;DHT22;7364;50.870;4.722;2024-01-30T10:02:20;13.00;99.90
14555;DHT22;7364;50.870;4.722;2024-01-30T10:04:50;12.90;99.90
14555;DHT22;7364;50.870;4.722;2024-01-30T10:07:18;13.20;99.90
14555;DHT22;7364;50.870;4.722;2024-01-30T10:09:45;13.20;99.90
14555;DHT22;7364;50.870;4.722;2024-01-30T10:12:13;13.20;99.90
14555;DHT22;7364;50.870;4.722;2024-01-30T10:14:41;13.00;99.90
14555;DHT22;7364;50.870;4.722;2024-01-30T10:17:09;13.10;99.90
14555;DHT22;7364;50.870;4.722;2024-01-30T10:19:36;13.40;99.90
14555;DHT22;7364;50.870;4.722;2024-01-30T10:22:05;13.20;99.90
14555;DHT22;7364;50.870;4.722;2024-01-30T10:24:33;13.10;99.90
14555;DHT22;7364;50.870;4.722;2024-01-30T10:27:01;13.10;99.90
14555;DHT22;7364;50.870;4.722;2024-01-30T10:29:28;13.20;99.90
14555;DHT22;7364;50.870;4.722;2024-01-30T10:31:59;13.30;99.90
14555;DHT22;7364;50.870;4.722;2024-01-30T10:34:26;13.40;99.90
14555;DHT22;7364;50.870;4.722;2024-01-30T10:37:00;13.50;99.90
14555;DHT22;7364;50.870;4.722;2024-01-30T10:39:37;13.60;99.90
14555;DHT22;7364;50.870;4.722;2024-01-30T10:42:05;13.50;99.90
14555;DHT22;7364;50.870;4.722;2024-01-30T10:44:39;13.80;99.90
14555;DHT22;7364;50.870;4.722;2024-01-30T10:47:12;13.70;99.90
14555;DHT22;7364;50.870;4.722;2024-01-30T10:49:41;13.60;99.90
14555;DHT22;7364;50.870;4.722;2024-01-30T10:52:10;13.40;99.90
14555;DHT22;7364;50.870;4.722;2024-01-30T10:54:40;13.50;99.90
14555;DHT22;7364;50.870;4.722;2024-01-30T10:57:09;13.50;99.90
14555;DHT22;7364;50.870;4.722;2024-01-30T10:59:37;13.20;99.90
14555;DHT22;7364;50.870;4.722;2024-01-30T11:02:05;13.00;99.90
14555;DHT22;7364;50.870;4.722;2024-01-30T11:04:37;12.90;99.90
14555;DHT22;7364;50.870;4.722;2024-01-30T11:07:14;12.70;99.90
14555;DHT22;7364;50.870;4.722;2024-01-30T11:09:50;12.70;99.90
14555;DHT22;7364;50.870;4.722;2024-01-30T11:12:22;12.40;99.90
14555;DHT22;7364;50.870;4.722;2024-01-30T11:14:50;12.40;99.90
14555;DHT22;7364;50.870;4.722;2024-01-30T11:17:42;12.40;99.90
14555;DHT22;7364;50.870;4.722;2024-01-30T11:20:11;12.40;99.90
14555;DHT22;7364;50.870;4.722;2024-01-30T11:22:42;12.50;99.90
14555;DHT22;7364;50.870;4.722;2024-01-30T11:25:15;12.40;99.90
14555;DHT22;7364;50.870;4.722;2024-01-30T11:27:43;12.40;99.90
14555;DHT22;7364;50.870;4.722;2024-01-30T11:33:04;12.30;99.90
14555;DHT22;7364;50.870;4.722;2024-01-30T11:35:33;12.40;99.90
14555;DHT22;7364;50.870;4.722;2024-01-30T11:38:02;12.50;99.90
14555;DHT22;7364;50.870;4.722;2024-01-30T11:40:31;12.60;99.90
14555;DHT22;7364;50.870;4.722;2024-01-30T11:43:00;12.30;99.90
14555;DHT22;7364;50.870;4.722;2024-01-30T11:45:28;12.20;99.90
14555;DHT22;7364;50.870;4.722;2024-01-30T11:47:56;12.10;99.90
14555;DHT22;7364;50.870;4.722;2024-01-30T11:50:26;12.00;99.90
14555;DHT22;7364;50.870;4.722;2024-01-30T11:52:55;12.00;99.90
14555;DHT22;7364;50.870;4.722;2024-01-30T11:55:23;11.90;99.90
14555;DHT22;7364;50.870;4.722;2024-01-30T11:57:54;11.80;99.90
14555;DHT22;7364;50.870;4.722;2024-01-30T12:00:22;11.80;99.90
14555;DHT22;7364;50.870;4.722;2024-01-30T12:02:50;11.80;99.90
14555;DHT22;7364;50.870;4.722;2024-01-30T12:05:21;11.80;99.90
14555;DHT22;7364;50.870;4.722;2024-01-30T12:07:49;11.80;99.90
14555;DHT22;7364;50.870;4.722;2024-01-30T12:10:17;11.90;99.90
14555;DHT22;7364;50.870;4.722;2024-01-30T12:12:46;12.00;99.90
14555;DHT22;7364;50.870;4.722;2024-01-30T12:15:16;11.90;99.90
14555;DHT22;7364;50.870;4.722;2024-01-30T12:17:43;11.90;99.90
14555;DHT22;7364;50.870;4.722;2024-01-30T12:20:12;11.90;99.90
14555;DHT22;7364;50.870;4.722;2024-01-30T12:22:41;11.90;99.90
14555;DHT22;7364;50.870;4.722;2024-01-30T12:25:09;11.80;99.90
14555;DHT22;7364;50.870;4.722;2024-01-30T12:27:36;11.70;99.90
14555;DHT22;7364;50.870;4.722;2024-01-30T12:30:06;11.70;99.90
14555;DHT22;7364;50.870;4.722;2024-01-30T12:32:36;11.60;99.90
14555;DHT22;7364;50.870;4.722;2024-01-30T12:35:04;11.60;99.90
14555;DHT22;7364;50.870;4.722;2024-01-30T12:37:33;11.60;99.90
14555;DHT22;7364;50.870;4.722;2024-01-30T12:40:02;11.60;99.90
14555;DHT22;7364;50.870;4.722;2024-01-30T12:42:29;11.50;99.90
14555;DHT22;7364;50.870;4.722;2024-01-30T12:44:57;11.60;99.90
14555;DHT22;7364;50.870;4.722;2024-01-30T12:47:25;11.70;99.90
14555;DHT22;7364;50.870;4.722;2024-01-30T12:49:54;11.90;99.90
14555;DHT22;7364;50.870;4.722;2024-01-30T12:52:22;12.10;99.90
14555;DHT22;7364;50.870;4.722;2024-01-30T12:54:49;12.10;99.90
14555;DHT22;7364;50.870;4.722;2024-01-30T12:57:16;12.10;99.90
14555;DHT22;7364;50.870;4.722;2024-01-30T12:59:44;12.00;99.90
14555;DHT22;7364;50.870;4.722;2024-01-30T13:02:12;12.00;99.90
14555;DHT22;7364;50.870;4.722;2024-01-30T13:04:39;12.00;99.90
14555;DHT22;7364;50.870;4.722;2024-01-30T13:07:09;11.90;99.90
14555;DHT22;7364;50.870;4.722;2024-01-30T13:09:36;11.90;99.90
14555;DHT22;7364;50.870;4.722;2024-01-30T13:12:04;12.00;99.90
14555;DHT22;7364;50.870;4.722;2024-01-30T13:14:32;12.10;99.90
14555;DHT22;7364;50.870;4.722;2024-01-30T13:16:59;12.10;99.90
14555;DHT22;7364;50.870;4.722;2024-01-30T13:19:27;12.20;99.90
14555;DHT22;7364;50.870;4.722;2024-01-30T13:21:54;12.20;99.90
14555;DHT22;7364;50.870;4.722;2024-01-30T13:24:23;12.20;99.90
14555;DHT22;7364;50.870;4.722;2024-01-30T13:26:50;12.30;99.90
14555;DHT22;7364;50.870;4.722;2024-01-30T13:29:18;12.30;99.90
14555;DHT22;7364;50.870;4.722;2024-01-30T13:31:45;12.30;99.90
14555;DHT22;7364;50.870;4.722;2024-01-30T13:34:13;12.30;99.90
14555;DHT22;7364;50.870;4.722;2024-01-30T13:36:40;12.30;99.90
14555;DHT22;7364;50.870;4.722;2024-01-30T13:39:08;12.20;99.90
14555;DHT22;7364;50.870;4.722;2024-01-30T13:41:40;12.00;99.90
14555;DHT22;7364;50.870;4.722;2024-01-30T13:44:08;12.00;99.90
14555;DHT22;7364;50.870;4.722;2024-01-30T13:46:35;11.90;99.90
14555;DHT22;7364;50.870;4.722;2024-01-30T13:49:02;11.90;99.90
14555;DHT22;7364;50.870;4.722;2024-01-30T13:51:30;12.10;99.90
14555;DHT22;7364;50.870;4.722;2024-01-30T13:53:57;12.20;99.90
14555;DHT22;7364;50.870;4.722;2024-01-30T13:56:24;12.30;99.90
14555;DHT22;7364;50.870;4.722;2024-01-30T13:58:53;12.10;99.90
14555;DHT22;7364;50.870;4.722;2024-01-30T14:01:22;12.10;99.90
14555;DHT22;7364;50.870;4.722;2024-01-30T14:03:50;12.00;99.90
14555;DHT22;7364;50.870;4.722;2024-01-30T14:06:17;12.00;99.90
14555;DHT22;7364;50.870;4.722;2024-01-30T14:08:45;12.00;99.90
14555;DHT22;7364;50.870;4.722;2024-01-30T14:11:12;12.10;99.90
14555;DHT22;7364;50.870;4.722;2024-01-30T14:13:39;12.00;99.90
14555;DHT22;7364;50.870;4.722;2024-01-30T14:16:08;11.80;99.90
14555;DHT22;7364;50.870;4.722;2024-01-30T14:18:35;11.70;99.90
14555;DHT22;7364;50.870;4.722;2024-01-30T14:21:03;11.70;99.90
14555;DHT22;7364;50.870;4.722;2024-01-30T14:23:30;11.70;99.90
14555;DHT22;7364;50.870;4.722;2024-01-30T14:25:57;11.60;99.90
14555;DHT22;7364;50.870;4.722;2024-01-30T14:28:24;11.60;99.90
14555;DHT22;7364;50.870;4.722;2024-01-30T14:30:51;11.60;99.90
14555;DHT22;7364;50.870;4.722;2024-01-30T14:33:20;11.50;99.90
14555;DHT22;7364;50.870;4.722;2024-01-30T14:35:47;11.50;99.90
14555;DHT22;7364;50.870;4.722;2024-01-30T14:38:14;11.40;99.90
14555;DHT22;7364;50.870;4.722;2024-01-30T14:40:41;11.50;99.90
14555;DHT22;7364;50.870;4.722;2024-01-30T14:43:09;11.40;99.90
14555;DHT22;7364;50.870;4.722;2024-01-30T14:45:36;11.40;99.90
14555;DHT22;7364;50.870;4.722;2024-01-30T14:48:04;11.40;99.90
14555;DHT22;7364;50.870;4.722;2024-01-30T14:50:32;11.50;99.90
14555;DHT22;7364;50.870;4.722;2024-01-30T14:53:00;11.40;99.90
14555;DHT22;7364;50.870;4.722;2024-01-30T14:55:27;11.40;99.90
14555;DHT22;7364;50.870;4.722;2024-01-30T14:57:54;11.40;99.90
14555;DHT22;7364;50.870;4.722;2024-01-30T15:00:22;11.30;99.90
14555;DHT22;7364;50.870;4.722;2024-01-30T15:02:49;11.20;99.90
14555;DHT22;7364;50.870;4.722;2024-01-30T15:05:16;11.20;99.90
14555;DHT22;7364;50.870;4.722;2024-01-30T15:07:48;11.20;99.90
14555;DHT22;7364;50.870;4.722;2024-01-30T15:10:15;11.10;99.90
14555;DHT22;7364;50.870;4.722;2024-01-30T15:12:43;11.10;99.90
14555;DHT22;7364;50.870;4.722;2024-01-30T15:15:10;11.10;99.90
14555;DHT22;7364;50.870;4.722;2024-01-30T15:17:37;11.10;99.90
14555;DHT22;7364;50.870;4.722;2024-01-30T15:20:06;11.10;99.90
14555;DHT22;7364;50.870;4.722;2024-01-30T15:22:34;11.00;99.90
14555;DHT22;7364;50.870;4.722;2024-01-30T15:25:03;11.00;99.90
14555;DHT22;7364;50.870;4.722;2024-01-30T15:27:30;10.90;99.90
14555;DHT22;7364;50.870;4.722;2024-01-30T15:29:57;10.90;99.90
14555;DHT22;7364;50.870;4.722;2024-01-30T15:32:25;10.80;99.90
14555;DHT22;7364;50.870;4.722;2024-01-30T15:34:52;10.70;99.90
14555;DHT22;7364;50.870;4.722;2024-01-30T15:37:20;10.70;99.90
14555;DHT22;7364;50.870;4.722;2024-01-30T15:39:47;10.60;99.90
14555;DHT22;7364;50.870;4.722;2024-01-30T15:42:16;10.60;99.90
14555;DHT22;7364;50.870;4.722;2024-01-30T15:44:43;10.50;99.90
14555;DHT22;7364;50.870;4.722;2024-01-30T15:47:10;10.50;99.90
14555;DHT22;7364;50.870;4.722;2024-01-30T15:49:37;10.50;99.90
14555;DHT22;7364;50.870;4.722;2024-01-30T15:52:07;10.50;99.90
14555;DHT22;7364;50.870;4.722;2024-01-30T15:54:40;10.40;99.90